createdAt,value
2023-05-14T00:01:33.463Z,15.04
2023-05-14T00:04:01.384Z,14.66
2023-05-14T00:06:29.541Z,14.13
2023-05-14T00:08:57.573Z,13.71
2023-05-14T00:11:25.424Z,13.41
2023-05-14T00:13:53.370Z,13.16
2023-05-14T00:16:21.242Z,12.96
2023-05-14T00:18:49.214Z,12.78
2023-05-14T00:21:17.403Z,12.64
2023-05-14T00:23:45.555Z,12.52
2023-05-14T00:26:13.720Z,12.56
2023-05-14T00:28:41.546Z,13.25
2023-05-14T00:31:09.364Z,13.98
2023-05-14T00:33:37.272Z,14.51
2023-05-14T00:36:05.739Z,14.82
2023-05-14T00:38:33.672Z,14.45
2023-05-14T00:41:01.499Z,13.94
2023-05-14T00:43:29.416Z,13.55
2023-05-14T00:45:57.574Z,13.25
2023-05-14T00:48:26.239Z,13.00
2023-05-14T00:50:54.782Z,12.80
2023-05-14T00:53:22.825Z,12.76
2023-05-14T00:55:51.025Z,13.36
2023-05-14T00:58:20.026Z,14.04
2023-05-14T01:00:48.507Z,14.58
2023-05-14T01:03:16.642Z,14.80
2023-05-14T01:06:08.583Z,14.33
2023-05-14T01:09:22.977Z,13.68
2023-05-14T01:12:17.457Z,13.12
2023-05-14T01:15:00.883Z,12.75
2023-05-14T01:17:34.005Z,12.67
2023-05-14T01:20:03.665Z,13.28
2023-05-14T01:22:31.662Z,13.95
2023-05-14T01:24:59.415Z,14.47
2023-05-14T01:27:42.157Z,14.85
2023-05-14T01:30:37.528Z,14.95
2023-05-14T01:33:14.345Z,14.25
2023-05-14T01:35:44.596Z,13.63
2023-05-14T01:38:17.230Z,13.20
2023-05-14T01:40:47.073Z,12.88
2023-05-14T01:43:17.028Z,12.78
2023-05-14T01:45:45.054Z,13.38
2023-05-14T01:48:12.995Z,14.06
2023-05-14T01:50:41.218Z,14.57
2023-05-14T01:53:08.987Z,14.80
2023-05-14T01:55:36.861Z,14.33
2023-05-14T01:58:04.711Z,13.76
2023-05-14T02:00:32.508Z,13.34
2023-05-14T02:03:00.577Z,13.17
2023-05-14T02:05:28.537Z,13.66
2023-05-14T02:07:56.318Z,14.26
2023-05-14T02:10:24.294Z,14.68
2023-05-14T02:12:52.359Z,14.94
2023-05-14T02:15:20.168Z,15.01
2023-05-14T02:17:48.055Z,14.49
2023-05-14T02:20:16.138Z,13.87
2023-05-14T02:22:45.807Z,13.39
2023-05-14T02:25:13.641Z,13.00
2023-05-14T02:27:41.407Z,12.78
2023-05-14T02:30:10.775Z,13.18
2023-05-14T02:32:39.010Z,13.71
2023-05-14T02:35:09.254Z,14.09
2023-05-14T02:37:37.001Z,14.33
2023-05-14T02:40:05.444Z,14.48
2023-05-14T02:42:33.263Z,14.41
2023-05-14T02:45:01.245Z,13.80
2023-05-14T02:47:29.018Z,13.18
2023-05-14T02:49:56.880Z,12.82
2023-05-14T02:52:24.670Z,13.11
2023-05-14T02:54:52.376Z,13.52
2023-05-14T02:57:21.356Z,13.84
2023-05-14T02:59:49.235Z,14.16
2023-05-14T03:02:17.661Z,14.37
2023-05-14T03:04:46.908Z,14.14
2023-05-14T03:07:14.641Z,13.44
2023-05-14T03:09:42.382Z,12.83
2023-05-14T03:12:10.220Z,12.49
2023-05-14T03:14:38.004Z,12.80
2023-05-14T03:17:06.142Z,13.25
2023-05-14T03:19:33.904Z,13.57
2023-05-14T03:22:01.864Z,13.79
2023-05-14T03:24:29.710Z,13.98
2023-05-14T03:26:57.488Z,14.25
2023-05-14T03:29:25.221Z,14.38
2023-05-14T03:31:54.452Z,13.99
2023-05-14T03:34:22.392Z,13.63
2023-05-14T03:36:50.491Z,13.45
2023-05-14T03:39:20.014Z,13.46
2023-05-14T03:41:48.547Z,13.60
2023-05-14T03:44:16.625Z,13.85
2023-05-14T03:46:44.550Z,14.15
2023-05-14T03:49:12.350Z,14.48
2023-05-14T03:51:40.966Z,14.89
2023-05-14T03:54:09.667Z,15.40
2023-05-14T03:56:37.487Z,16.00
2023-05-14T03:59:05.401Z,16.60
2023-05-14T04:01:35.577Z,17.13
2023-05-14T04:04:03.656Z,17.61
2023-05-14T04:06:34.048Z,18.01
2023-05-14T04:09:02.513Z,18.44
2023-05-14T04:11:30.384Z,18.95
2023-05-14T04:13:58.162Z,19.48
2023-05-14T04:16:26.078Z,19.94
2023-05-14T04:18:53.999Z,20.30
2023-05-14T04:21:21.806Z,20.58
2023-05-14T04:23:50.919Z,20.80
2023-05-14T04:26:18.701Z,21.00
2023-05-14T04:28:46.431Z,21.27
2023-05-14T04:31:15.681Z,21.65
2023-05-14T04:33:43.471Z,22.13
2023-05-14T04:36:11.312Z,22.67
2023-05-14T04:38:39.073Z,23.15
2023-05-14T04:41:07.305Z,23.67
2023-05-14T04:43:35.118Z,24.21
2023-05-14T04:46:03.318Z,24.78
2023-05-14T04:48:31.300Z,25.36
2023-05-14T04:50:59.165Z,25.92
2023-05-14T04:53:27.123Z,26.48
2023-05-14T04:55:55.328Z,27.02
2023-05-14T04:58:24.253Z,27.64
2023-05-14T05:00:52.157Z,28.25
2023-05-14T05:03:20.205Z,28.80
2023-05-14T05:05:48.163Z,29.32
2023-05-14T05:08:16.028Z,29.73
2023-05-14T05:10:43.808Z,30.00
2023-05-14T05:13:11.745Z,30.28
2023-05-14T05:15:39.570Z,30.53
2023-05-14T05:18:07.465Z,30.49
2023-05-14T05:20:35.380Z,30.42
2023-05-14T05:23:03.225Z,29.81
2023-05-14T05:25:32.513Z,28.91
2023-05-14T05:28:00.400Z,27.92
2023-05-14T05:30:28.410Z,27.03
2023-05-14T05:32:57.779Z,26.42
2023-05-14T05:35:25.852Z,25.92
2023-05-14T05:37:53.648Z,25.51
2023-05-14T05:40:21.720Z,25.09
2023-05-14T05:42:49.743Z,24.69
2023-05-14T05:45:17.512Z,24.32
2023-05-14T05:47:45.941Z,24.05
2023-05-14T05:50:15.070Z,23.80
2023-05-14T05:52:43.140Z,23.45
2023-05-14T05:55:11.197Z,22.97
2023-05-14T05:57:38.975Z,22.51
2023-05-14T06:00:13.275Z,22.15
2023-05-14T06:02:42.015Z,21.80
2023-05-14T06:05:14.360Z,21.47
2023-05-14T06:07:42.540Z,21.20
2023-05-14T06:10:11.166Z,21.06
2023-05-14T06:12:39.152Z,20.88
2023-05-14T06:15:07.756Z,20.66
2023-05-14T06:17:35.526Z,20.52
2023-05-14T06:20:05.667Z,20.44
2023-05-14T06:22:34.209Z,20.37
2023-05-14T06:25:02.193Z,20.29
2023-05-14T06:27:30.540Z,20.21
2023-05-14T06:29:58.433Z,20.19
2023-05-14T06:32:26.290Z,20.17
2023-05-14T06:34:54.102Z,20.14
2023-05-14T06:37:21.908Z,20.16
2023-05-14T06:39:52.654Z,20.21
2023-05-14T06:42:20.556Z,20.33
2023-05-14T06:44:48.436Z,20.43
2023-05-14T06:47:16.254Z,20.53
2023-05-14T06:49:44.214Z,20.61
2023-05-14T06:52:12.029Z,20.73
2023-05-14T06:54:39.766Z,20.85
2023-05-14T06:57:07.574Z,20.95
2023-05-14T06:59:36.059Z,21.00
2023-05-14T07:02:03.907Z,21.01
2023-05-14T07:04:32.170Z,21.05
2023-05-14T07:06:59.963Z,21.10
2023-05-14T07:09:27.825Z,21.17
2023-05-14T07:11:55.644Z,21.22
2023-05-14T07:14:23.440Z,21.31
2023-05-14T07:16:51.302Z,21.41
2023-05-14T07:19:19.128Z,21.55
2023-05-14T07:21:46.968Z,21.70
2023-05-14T07:24:14.698Z,21.85
2023-05-14T07:26:42.531Z,21.99
2023-05-14T07:29:10.455Z,22.05
2023-05-14T07:31:38.330Z,22.06
2023-05-14T07:34:06.295Z,22.01
2023-05-14T07:36:34.413Z,21.98
2023-05-14T07:39:02.341Z,22.02
2023-05-14T07:41:30.109Z,22.08
2023-05-14T07:43:58.552Z,22.19
2023-05-14T07:46:26.816Z,22.29
2023-05-14T07:48:54.672Z,22.44
2023-05-14T07:51:23.198Z,22.61
2023-05-14T07:53:51.201Z,22.75
2023-05-14T07:56:19.084Z,22.89
2023-05-14T07:58:47.077Z,23.02
2023-05-14T08:01:15.165Z,23.12
2023-05-14T08:03:43.147Z,23.24
2023-05-14T08:06:11.925Z,23.39
2023-05-14T08:08:39.947Z,23.54
2023-05-14T08:11:07.823Z,23.59
2023-05-14T08:13:35.770Z,23.68
2023-05-14T08:16:03.799Z,23.78
2023-05-14T08:18:31.792Z,23.87
2023-05-14T08:21:01.036Z,23.90
2023-05-14T08:23:30.155Z,23.91
2023-05-14T08:25:59.393Z,23.89
2023-05-14T08:28:27.187Z,23.95
2023-05-14T08:30:55.120Z,23.99
2023-05-14T08:33:23.466Z,24.03
2023-05-14T08:35:54.867Z,24.02
2023-05-14T08:38:22.726Z,24.05
2023-05-14T08:40:58.849Z,24.04
2023-05-14T08:43:56.973Z,24.03
2023-05-14T08:46:26.828Z,24.15
2023-05-14T08:49:04.347Z,24.31
2023-05-14T08:51:36.761Z,24.38
2023-05-14T08:54:06.004Z,24.45
2023-05-14T08:56:33.926Z,24.58
2023-05-14T08:59:01.716Z,24.57
2023-05-14T09:01:30.064Z,24.45
2023-05-14T09:04:01.607Z,24.39
2023-05-14T09:06:30.917Z,24.40
2023-05-14T09:08:58.832Z,24.42
2023-05-14T09:11:26.745Z,24.49
2023-05-14T09:13:54.578Z,24.59
2023-05-14T09:16:25.832Z,24.67
2023-05-14T09:18:55.267Z,24.84
2023-05-14T09:21:23.644Z,24.97
2023-05-14T09:23:57.041Z,25.08
2023-05-14T09:26:26.646Z,25.17
2023-05-14T09:28:56.621Z,25.30
2023-05-14T09:31:24.722Z,25.38
2023-05-14T09:33:53.268Z,25.44
2023-05-14T09:36:21.336Z,25.48
2023-05-14T09:38:49.136Z,25.59
2023-05-14T09:41:17.049Z,25.69
2023-05-14T09:43:45.099Z,25.75
2023-05-14T09:46:13.304Z,25.83
2023-05-14T09:48:41.257Z,25.93
2023-05-14T09:51:11.353Z,26.01
2023-05-14T09:53:41.384Z,26.12
2023-05-14T09:56:09.364Z,26.18
2023-05-14T09:58:37.311Z,26.19
2023-05-14T10:01:06.877Z,26.20
2023-05-14T10:03:36.121Z,26.14
2023-05-14T10:06:06.711Z,26.01
2023-05-14T10:08:36.479Z,25.99
2023-05-14T10:11:17.907Z,26.07
2023-05-14T10:13:58.196Z,26.16
2023-05-14T10:16:34.179Z,26.24
2023-05-14T10:19:10.940Z,26.30
2023-05-14T10:21:49.866Z,26.41
2023-05-14T10:24:20.212Z,26.51
2023-05-14T10:26:49.152Z,26.57
2023-05-14T10:29:16.952Z,26.67
2023-05-14T10:31:55.591Z,26.80
2023-05-14T10:34:46.499Z,26.90
2023-05-14T10:37:26.058Z,26.77
2023-05-14T10:39:58.877Z,26.45
2023-05-14T10:42:29.153Z,26.22
2023-05-14T10:45:01.949Z,25.93
2023-05-14T10:47:29.995Z,25.70
2023-05-14T10:50:01.920Z,25.62
2023-05-14T10:52:31.126Z,25.64
2023-05-14T10:55:07.849Z,25.50
2023-05-14T10:57:40.062Z,25.04
2023-05-14T11:00:09.278Z,24.50
2023-05-14T11:02:40.599Z,24.04
2023-05-14T11:05:15.732Z,23.68
2023-05-14T11:07:47.298Z,23.48
2023-05-14T11:10:18.627Z,23.28
2023-05-14T11:12:50.081Z,23.06
2023-05-14T11:15:23.463Z,22.86
2023-05-14T11:17:53.627Z,22.66
2023-05-14T11:20:21.971Z,22.39
2023-05-14T11:22:51.857Z,22.14
2023-05-14T11:25:20.624Z,21.96
2023-05-14T11:27:50.750Z,21.94
2023-05-14T11:30:20.723Z,22.10
2023-05-14T11:32:50.661Z,22.36
2023-05-14T11:35:18.961Z,22.53
2023-05-14T11:37:54.796Z,22.66
2023-05-14T11:40:22.951Z,22.67
2023-05-14T11:42:54.001Z,22.66
2023-05-14T11:45:27.522Z,22.71
2023-05-14T11:47:56.187Z,22.82
2023-05-14T11:50:24.295Z,22.97
2023-05-14T11:52:57.494Z,23.16
2023-05-14T11:55:25.596Z,23.24
2023-05-14T11:57:54.474Z,23.24
2023-05-14T12:00:24.158Z,23.25
2023-05-14T12:02:52.569Z,23.27
2023-05-14T12:05:20.840Z,23.21
2023-05-14T12:07:48.962Z,23.09
2023-05-14T12:10:16.789Z,22.92
2023-05-14T12:12:47.828Z,22.61
2023-05-14T12:15:21.883Z,22.30
2023-05-14T12:17:52.077Z,21.96
2023-05-14T12:20:20.230Z,21.61
2023-05-14T12:22:48.137Z,21.28
2023-05-14T12:25:16.054Z,21.13
2023-05-14T12:27:45.625Z,21.22
2023-05-14T12:32:46.178Z,21.44
2023-05-14T12:35:17.041Z,21.62
2023-05-14T12:37:45.024Z,21.79
2023-05-14T12:40:13.274Z,21.98
2023-05-14T12:42:41.157Z,22.18
2023-05-14T12:45:09.338Z,22.21
2023-05-14T12:47:37.816Z,22.13
2023-05-14T12:50:07.837Z,22.01
2023-05-14T12:52:39.139Z,21.90
2023-05-14T12:55:09.765Z,21.80
2023-05-14T12:57:39.707Z,21.74
2023-05-14T13:00:14.103Z,21.73
2023-05-14T13:02:43.664Z,21.71
2023-05-14T13:05:12.959Z,21.76
2023-05-14T13:07:41.237Z,21.83
2023-05-14T13:10:10.063Z,21.99
2023-05-14T13:12:39.011Z,22.13
2023-05-14T13:15:07.926Z,22.29
2023-05-14T13:17:37.021Z,22.40
2023-05-14T13:20:05.501Z,22.44
2023-05-14T13:22:33.728Z,22.42
2023-05-14T13:25:01.701Z,22.32
2023-05-14T13:27:30.537Z,22.10
2023-05-14T13:29:58.633Z,21.85
2023-05-14T13:32:26.528Z,21.65
2023-05-14T13:34:54.338Z,21.57
2023-05-14T13:37:22.422Z,21.61
2023-05-14T13:39:51.432Z,21.54
2023-05-14T13:42:19.584Z,21.48
2023-05-14T13:44:47.471Z,21.61
2023-05-14T13:47:15.383Z,21.78
2023-05-14T13:49:43.279Z,21.94
2023-05-14T13:52:11.116Z,22.05
2023-05-14T13:54:38.885Z,22.20
2023-05-14T13:57:06.985Z,22.26
2023-05-14T13:59:35.761Z,22.20
2023-05-14T14:02:03.810Z,22.07
2023-05-14T14:04:32.030Z,21.96
2023-05-14T14:07:00.258Z,21.78
2023-05-14T14:09:28.069Z,21.58
2023-05-14T14:11:56.014Z,21.42
2023-05-14T14:14:23.833Z,21.30
2023-05-14T14:16:51.710Z,21.25
2023-05-14T14:19:19.647Z,21.25
2023-05-14T14:21:47.837Z,21.28
2023-05-14T14:24:15.693Z,21.32
2023-05-14T14:26:43.473Z,21.36
2023-05-14T14:29:11.417Z,21.41
2023-05-14T14:31:39.381Z,21.45
2023-05-14T14:34:07.236Z,21.47
2023-05-14T14:36:35.115Z,21.48
2023-05-14T14:39:03.157Z,21.41
2023-05-14T14:41:31.100Z,21.35
2023-05-14T14:43:59.200Z,21.29
2023-05-14T14:46:27.190Z,21.26
2023-05-14T14:48:55.288Z,21.23
2023-05-14T14:51:23.255Z,21.26
2023-05-14T14:53:51.114Z,21.32
2023-05-14T14:56:19.355Z,21.37
2023-05-14T14:58:47.272Z,21.41
2023-05-14T15:01:15.244Z,21.45
2023-05-14T15:03:45.755Z,21.49
2023-05-14T15:06:13.740Z,21.46
2023-05-14T15:08:41.990Z,21.38
2023-05-14T15:11:09.900Z,21.28
2023-05-14T15:13:37.723Z,21.21
2023-05-14T15:16:05.752Z,21.17
2023-05-14T15:18:33.799Z,21.12
2023-05-14T15:21:01.857Z,21.08
2023-05-14T15:23:29.730Z,21.08
2023-05-14T15:25:57.593Z,21.10
2023-05-14T15:28:25.716Z,21.11
2023-05-14T15:30:53.580Z,21.11
2023-05-14T15:33:21.516Z,21.11
2023-05-14T15:35:49.386Z,21.12
2023-05-14T15:38:17.237Z,21.13
2023-05-14T15:40:47.992Z,21.14
2023-05-14T15:43:15.953Z,21.15
2023-05-14T15:45:45.837Z,21.16
2023-05-14T15:48:13.673Z,21.17
2023-05-14T15:50:42.497Z,21.17
2023-05-14T15:53:10.398Z,21.12
2023-05-14T15:55:38.293Z,21.06
2023-05-14T15:58:06.688Z,21.00
2023-05-14T16:00:34.641Z,20.95
2023-05-14T16:03:02.438Z,20.92
2023-05-14T16:05:30.630Z,20.88
2023-05-14T16:07:59.084Z,20.85
2023-05-14T16:10:27.127Z,20.80
2023-05-14T16:12:55.103Z,20.76
2023-05-14T16:15:22.851Z,20.73
2023-05-14T16:17:50.880Z,20.70
2023-05-14T16:20:18.849Z,20.69
2023-05-14T16:22:46.918Z,20.70
2023-05-14T16:25:14.992Z,20.72
2023-05-14T16:27:43.270Z,20.76
2023-05-14T16:30:11.725Z,20.83
2023-05-14T16:32:42.011Z,21.02
2023-05-14T16:35:10.235Z,21.28
2023-05-14T16:37:38.105Z,21.53
2023-05-14T16:40:07.645Z,21.75
2023-05-14T16:42:35.470Z,21.82
2023-05-14T16:45:04.200Z,21.76
2023-05-14T16:47:32.236Z,21.60
2023-05-14T16:50:00.422Z,21.43
2023-05-14T16:52:28.312Z,21.27
2023-05-14T16:54:56.813Z,21.10
2023-05-14T16:57:26.822Z,20.95
2023-05-14T16:59:54.783Z,20.82
2023-05-14T17:02:22.609Z,20.71
2023-05-14T17:04:50.685Z,20.59
2023-05-14T17:07:18.826Z,20.43
2023-05-14T17:09:46.699Z,20.30
2023-05-14T17:12:14.812Z,20.17
2023-05-14T17:14:43.008Z,20.06
2023-05-14T17:17:11.162Z,19.97
2023-05-14T17:19:39.025Z,19.87
2023-05-14T17:22:07.606Z,19.80
2023-05-14T17:24:36.639Z,19.73
2023-05-14T17:27:07.987Z,19.68
2023-05-14T17:29:35.826Z,19.64
2023-05-14T17:32:04.742Z,19.60
2023-05-14T17:34:32.989Z,19.54
2023-05-14T17:37:01.206Z,19.48
2023-05-14T17:39:29.331Z,19.44
2023-05-14T17:41:57.289Z,19.42
2023-05-14T17:44:25.232Z,19.41
2023-05-14T17:46:53.148Z,19.39
2023-05-14T17:49:20.962Z,19.35
2023-05-14T17:51:49.049Z,19.31
2023-05-14T17:54:16.943Z,19.25
2023-05-14T17:56:45.360Z,19.19
2023-05-14T17:59:15.855Z,19.14
2023-05-14T18:01:44.498Z,19.10
2023-05-14T18:04:12.682Z,19.07
2023-05-14T18:06:42.500Z,19.00
2023-05-14T18:09:10.840Z,18.91
2023-05-14T18:11:38.795Z,18.81
2023-05-14T18:14:07.167Z,18.72
2023-05-14T18:16:37.259Z,18.64
2023-05-14T18:19:05.786Z,18.58
2023-05-14T18:21:33.947Z,18.51
2023-05-14T18:24:04.703Z,18.45
2023-05-14T18:26:35.633Z,18.38
2023-05-14T18:29:03.912Z,18.30
2023-05-14T18:31:32.011Z,18.22
2023-05-14T18:34:02.970Z,18.15
2023-05-14T18:36:30.991Z,18.07
2023-05-14T18:38:59.394Z,18.00
2023-05-14T18:41:27.797Z,17.93
2023-05-14T18:43:56.071Z,17.86
2023-05-14T18:46:27.340Z,17.79
2023-05-14T18:48:58.827Z,17.69
2023-05-14T18:51:27.044Z,17.60
2023-05-14T18:53:54.895Z,17.52
2023-05-14T18:56:24.023Z,17.44
2023-05-14T18:58:53.828Z,17.34
2023-05-14T19:01:24.698Z,17.25
2023-05-14T19:03:53.510Z,17.16
2023-05-14T19:06:21.434Z,17.06
2023-05-14T19:08:49.367Z,16.96
2023-05-14T19:11:18.252Z,16.87
2023-05-14T19:13:47.049Z,16.80
2023-05-14T19:16:15.528Z,16.74
2023-05-14T19:18:44.273Z,16.68
2023-05-14T19:21:12.291Z,16.61
2023-05-14T19:23:40.361Z,16.54
2023-05-14T19:26:08.749Z,16.46
2023-05-14T19:28:39.104Z,16.38
2023-05-14T19:31:07.448Z,16.32
2023-05-14T19:33:35.369Z,16.26
2023-05-14T19:36:05.071Z,16.19
2023-05-14T19:38:33.081Z,16.13
2023-05-14T19:41:00.913Z,16.07
2023-05-14T19:43:28.825Z,16.01
2023-05-14T19:45:57.488Z,15.95
2023-05-14T19:48:25.988Z,15.90
2023-05-14T19:50:53.942Z,15.85
2023-05-14T19:53:21.825Z,15.81
2023-05-14T19:55:50.115Z,15.78
2023-05-14T19:58:18.150Z,15.74
2023-05-14T20:00:47.441Z,15.70
2023-05-14T20:03:15.979Z,15.63
2023-05-14T20:05:49.150Z,15.57
2023-05-14T20:08:19.230Z,15.52
2023-05-14T20:10:48.770Z,15.49
2023-05-14T20:13:16.743Z,15.47
2023-05-14T20:15:45.444Z,15.45
2023-05-14T20:18:13.569Z,15.43
2023-05-14T20:20:42.861Z,15.43
2023-05-14T20:23:10.904Z,15.40
2023-05-14T20:25:39.097Z,15.37
2023-05-14T20:28:07.240Z,15.32
2023-05-14T20:30:35.359Z,15.27
2023-05-14T20:33:04.192Z,15.24
2023-05-14T20:35:33.144Z,15.33
2023-05-14T20:38:02.282Z,16.01
2023-05-14T20:40:31.199Z,16.75
2023-05-14T20:42:59.108Z,17.11
2023-05-14T20:45:27.378Z,16.86
2023-05-14T20:47:56.109Z,16.50
2023-05-14T20:50:27.114Z,16.23
2023-05-14T20:52:55.384Z,16.03
2023-05-14T20:55:23.515Z,15.88
2023-05-14T20:57:51.721Z,15.75
2023-05-14T21:00:20.025Z,15.63
2023-05-14T21:02:49.432Z,15.53
2023-05-14T21:05:18.081Z,15.43
2023-05-14T21:07:46.138Z,15.31
2023-05-14T21:10:14.076Z,15.20
2023-05-14T21:12:42.816Z,15.08
2023-05-14T21:15:12.435Z,15.11
2023-05-14T21:17:40.801Z,15.73
2023-05-14T21:20:09.325Z,16.43
2023-05-14T21:22:37.079Z,16.93
2023-05-14T21:25:05.590Z,17.30
2023-05-14T21:27:33.773Z,16.96
2023-05-14T21:30:01.600Z,16.47
2023-05-14T21:32:29.594Z,16.11
2023-05-14T21:34:57.650Z,15.84
2023-05-14T21:37:25.557Z,15.60
2023-05-14T21:39:53.321Z,15.41
2023-05-14T21:42:21.638Z,15.21
2023-05-14T21:44:49.451Z,15.17
2023-05-14T21:47:17.478Z,15.80
2023-05-14T21:49:45.440Z,16.51
2023-05-14T21:52:13.408Z,16.89
2023-05-14T21:54:43.698Z,16.55
2023-05-14T21:57:11.566Z,16.07
2023-05-14T21:59:39.406Z,15.68
2023-05-14T22:02:08.043Z,15.39
2023-05-14T22:04:36.442Z,15.14
2023-05-14T22:07:04.867Z,14.94
2023-05-14T22:09:32.752Z,14.89
2023-05-14T22:12:00.644Z,15.47
2023-05-14T22:14:28.612Z,16.10
2023-05-14T22:16:56.802Z,16.51
2023-05-14T22:19:25.992Z,16.73
2023-05-14T22:21:54.429Z,16.40
2023-05-14T22:24:22.530Z,15.93
2023-05-14T22:26:50.816Z,15.55
2023-05-14T22:29:18.684Z,15.27
2023-05-14T22:31:46.531Z,15.05
2023-05-14T22:34:14.531Z,14.98
2023-05-14T22:36:42.515Z,15.50
2023-05-14T22:39:11.400Z,16.10
2023-05-14T22:41:41.213Z,16.48
2023-05-14T22:44:09.046Z,16.63
2023-05-14T22:46:36.974Z,16.21
2023-05-14T22:49:04.750Z,15.71
2023-05-14T22:51:32.880Z,15.33
2023-05-14T22:54:00.689Z,15.03
2023-05-14T22:56:28.576Z,14.90
2023-05-14T22:59:00.363Z,15.38
2023-05-14T23:01:30.228Z,15.93
2023-05-14T23:03:58.099Z,16.31
2023-05-14T23:06:26.260Z,16.58
2023-05-14T23:08:54.168Z,16.68
2023-05-14T23:11:22.637Z,16.28
2023-05-14T23:13:50.821Z,15.77
2023-05-14T23:16:18.958Z,15.36
2023-05-14T23:18:47.015Z,15.13
2023-05-14T23:21:15.264Z,15.54
2023-05-14T23:23:43.152Z,16.07
2023-05-14T23:26:11.096Z,16.47
2023-05-14T23:28:38.853Z,16.90
2023-05-14T23:31:06.676Z,17.11
2023-05-14T23:33:34.483Z,16.64
2023-05-14T23:36:03.722Z,16.04
2023-05-14T23:38:31.979Z,15.56
2023-05-14T23:40:59.790Z,15.20
2023-05-14T23:43:27.607Z,15.08
2023-05-14T23:45:55.899Z,15.66
2023-05-14T23:48:24.155Z,16.36
2023-05-14T23:50:51.961Z,16.88
2023-05-14T23:53:19.748Z,17.22
2023-05-14T23:55:47.642Z,16.82
2023-05-14T23:58:15.508Z,16.25
